createdAt,value
2017-05-06T00:00:19.592Z,998.3
2017-05-06T00:01:29.623Z,998.29
2017-05-06T00:02:39.982Z,998.24
2017-05-06T00:03:50.051Z,998.26
2017-05-06T00:05:00.392Z,998.29
2017-05-06T00:06:10.428Z,998.26
2017-05-06T00:07:20.490Z,998.24
2017-05-06T00:08:30.846Z,998.29
2017-05-06T00:09:40.574Z,998.27
2017-05-06T00:10:50.926Z,998.26
2017-05-06T00:12:01.279Z,998.3
2017-05-06T00:13:11.655Z,998.27
2017-05-06T00:14:21.999Z,998.31
2017-05-06T00:15:32.357Z,998.3
2017-05-06T00:16:42.397Z,998.38
2017-05-06T00:17:52.143Z,998.39
2017-05-06T00:19:02.167Z,998.35
2017-05-06T00:20:12.518Z,998.34
2017-05-06T00:21:22.898Z,998.4
2017-05-06T00:22:33.234Z,998.35
2017-05-06T00:23:43.674Z,998.28
2017-05-06T00:24:54.031Z,998.28
2017-05-06T00:26:04.075Z,998.23
2017-05-06T00:27:14.457Z,998.2
2017-05-06T00:28:24.805Z,998.2
2017-05-06T00:29:34.854Z,998.18
2017-05-06T00:30:44.894Z,998.15
2017-05-06T00:31:54.936Z,998.18
2017-05-06T00:33:05.288Z,998.13
2017-05-06T00:34:15.679Z,998.14
2017-05-06T00:35:26.027Z,998.15
2017-05-06T00:36:36.401Z,998.14
2017-05-06T00:37:46.480Z,998.11
2017-05-06T00:38:56.849Z,998.13
2017-05-06T00:40:06.579Z,998.11
2017-05-06T00:41:16.304Z,998.12
2017-05-06T00:42:26.334Z,998.06
2017-05-06T00:43:36.704Z,998.04
2017-05-06T00:44:47.060Z,998.08
2017-05-06T00:45:56.795Z,998.06
2017-05-06T00:47:07.148Z,998.01
2017-05-06T00:48:17.500Z,997.99
2017-05-06T00:49:27.525Z,997.99
2017-05-06T00:50:37.857Z,997.99
2017-05-06T00:51:48.186Z,997.96
2017-05-06T00:52:58.537Z,997.95
2017-05-06T00:54:08.884Z,998
2017-05-06T00:55:19.246Z,997.98
2017-05-06T00:56:29.612Z,998
2017-05-06T00:57:39.983Z,997.99
2017-05-06T00:58:50.339Z,997.95
2017-05-06T01:00:00.691Z,997.94
2017-05-06T01:01:10.736Z,997.94
2017-05-06T01:02:21.092Z,997.91
2017-05-06T01:03:31.443Z,997.91
2017-05-06T01:04:41.787Z,997.88
2017-05-06T01:05:51.845Z,997.88
2017-05-06T01:07:02.183Z,997.85
2017-05-06T01:08:12.218Z,997.84
2017-05-06T01:09:21.963Z,997.8
2017-05-06T01:10:31.670Z,997.8
2017-05-06T01:11:42.030Z,997.81
2017-05-06T01:12:52.381Z,997.81
2017-05-06T01:14:02.737Z,997.8
2017-05-06T01:15:13.078Z,997.74
2017-05-06T01:16:23.430Z,997.74
2017-05-06T01:17:33.529Z,997.73
2017-05-06T01:18:43.909Z,997.69
2017-05-06T01:19:53.947Z,997.7
2017-05-06T01:21:04.297Z,997.67
2017-05-06T01:22:14.639Z,997.63
2017-05-06T01:23:24.983Z,997.65
2017-05-06T01:24:35.022Z,997.63
2017-05-06T01:25:45.363Z,997.63
2017-05-06T01:26:55.725Z,997.65
2017-05-06T01:28:06.071Z,997.67
2017-05-06T01:29:16.411Z,997.65
2017-05-06T01:30:26.446Z,997.71
2017-05-06T01:31:36.797Z,997.69
2017-05-06T01:32:46.516Z,997.75
2017-05-06T01:33:56.563Z,997.75
2017-05-06T01:35:06.917Z,997.74
2017-05-06T01:36:16.960Z,997.73
2017-05-06T01:37:27.310Z,997.73
2017-05-06T01:38:37.664Z,997.73
2017-05-06T01:39:48.022Z,997.7
2017-05-06T01:40:58.386Z,997.68
2017-05-06T01:42:08.727Z,997.65
2017-05-06T01:43:19.100Z,997.6
2017-05-06T01:44:29.455Z,997.57
2017-05-06T01:45:39.795Z,997.58
2017-05-06T01:46:49.516Z,997.54
2017-05-06T01:47:59.867Z,997.53
2017-05-06T01:49:10.239Z,997.52
2017-05-06T01:50:20.272Z,997.5
2017-05-06T01:51:30.617Z,997.51
2017-05-06T01:52:41.019Z,997.49
2017-05-06T01:53:51.409Z,997.48
2017-05-06T01:55:01.768Z,997.51
2017-05-06T01:56:12.098Z,997.54
2017-05-06T01:57:22.134Z,997.52
2017-05-06T01:58:32.503Z,997.55
2017-05-06T01:59:42.863Z,997.58
2017-05-06T02:00:53.226Z,997.57
2017-05-06T02:02:03.578Z,997.55
2017-05-06T02:03:13.920Z,997.55
2017-05-06T02:04:24.313Z,997.56
2017-05-06T02:05:34.675Z,997.52
2017-05-06T02:06:45.025Z,997.56
2017-05-06T02:07:55.076Z,997.55
2017-05-06T02:09:05.432Z,997.51
2017-05-06T02:10:15.806Z,997.56
2017-05-06T02:11:25.857Z,997.51
2017-05-06T02:12:36.215Z,997.53
2017-05-06T02:13:46.609Z,997.53
2017-05-06T02:14:56.965Z,997.55
2017-05-06T02:16:06.984Z,997.56
2017-05-06T02:17:17.009Z,997.52
2017-05-06T02:18:27.367Z,997.56
2017-05-06T02:19:37.704Z,997.51
2017-05-06T02:20:48.064Z,997.55
2017-05-06T02:21:58.408Z,997.52
2017-05-06T02:23:08.777Z,997.54
2017-05-06T02:24:19.124Z,997.48
2017-05-06T02:25:29.468Z,997.46
2017-05-06T02:26:39.818Z,997.44
2017-05-06T02:27:50.180Z,997.42
2017-05-06T02:29:00.529Z,997.38
2017-05-06T02:30:10.880Z,997.38
2017-05-06T02:31:20.609Z,997.33
2017-05-06T02:32:30.654Z,997.33
2017-05-06T02:33:41.054Z,997.29
2017-05-06T02:34:51.109Z,997.28
2017-05-06T02:36:01.156Z,997.25
2017-05-06T02:37:11.533Z,997.22
2017-05-06T02:38:21.571Z,997.21
2017-05-06T02:39:31.917Z,997.22
2017-05-06T02:40:42.274Z,997.21
2017-05-06T02:41:52.615Z,997.23
2017-05-06T02:43:02.965Z,997.17
2017-05-06T02:44:13.310Z,997.21
2017-05-06T02:45:23.654Z,997.17
2017-05-06T02:46:34.011Z,997.17
2017-05-06T02:47:44.057Z,997.22
2017-05-06T02:48:54.428Z,997.18
2017-05-06T02:50:04.775Z,997.19
2017-05-06T02:51:15.121Z,997.22
2017-05-06T02:52:25.489Z,997.23
2017-05-06T02:53:35.540Z,997.21
2017-05-06T02:54:45.920Z,997.19
2017-05-06T02:55:56.268Z,997.17
2017-05-06T02:57:05.994Z,997.16
2017-05-06T02:58:16.060Z,997.18
2017-05-06T02:59:26.403Z,997.18
2017-05-06T03:00:36.455Z,997.2
2017-05-06T03:01:46.493Z,997.19
2017-05-06T03:32:56.859Z,997.44
2017-05-06T03:34:07.191Z,997.43
2017-05-06T03:35:17.524Z,997.46
2017-05-06T03:36:27.862Z,997.46
2017-05-06T03:37:38.212Z,997.49
2017-05-06T03:38:48.561Z,997.47
2017-05-06T03:39:58.900Z,997.46
2017-05-06T03:41:09.277Z,997.48
2017-05-06T03:42:19.629Z,997.46
2017-05-06T03:43:29.985Z,997.49
2017-05-06T03:44:39.719Z,997.5
2017-05-06T03:45:50.061Z,997.51
2017-05-06T03:47:00.408Z,997.48
2017-05-06T03:48:10.745Z,997.48
2017-05-06T03:49:20.473Z,997.47
2017-05-06T03:50:30.821Z,997.49
2017-05-06T03:51:41.172Z,997.5
2017-05-06T03:52:51.206Z,997.54
2017-05-06T03:54:01.561Z,997.52
2017-05-06T03:55:11.614Z,997.49
2017-05-06T03:56:21.961Z,997.5
2017-05-06T03:57:32.314Z,997.49
2017-05-06T03:58:42.670Z,997.51
2017-05-06T03:59:52.701Z,997.53
2017-05-06T04:01:02.735Z,997.53
2017-05-06T04:02:12.772Z,997.51
2017-05-06T04:03:23.145Z,997.51
2017-05-06T04:04:33.494Z,997.57
2017-05-06T04:05:43.834Z,997.57
2017-05-06T04:06:54.183Z,997.58
2017-05-06T04:08:04.523Z,997.58
2017-05-06T04:09:14.559Z,997.57
2017-05-06T04:10:24.923Z,997.56
2017-05-06T04:11:35.279Z,997.59
2017-05-06T04:12:45.636Z,997.56
2017-05-06T04:13:55.678Z,997.57
2017-05-06T04:15:06.025Z,997.55
2017-05-06T04:16:16.413Z,997.59
2017-05-06T04:17:26.782Z,997.58
2017-05-06T04:18:37.141Z,997.51
2017-05-06T04:19:47.511Z,997.58
2017-05-06T04:20:57.557Z,997.59
2017-05-06T04:22:07.584Z,997.56
2017-05-06T04:23:17.939Z,997.61
2017-05-06T04:24:28.306Z,997.6
2017-05-06T04:25:38.653Z,997.6
2017-05-06T04:26:48.990Z,997.59
2017-05-06T04:27:59.352Z,997.6
2017-05-06T04:29:09.713Z,997.6
2017-05-06T04:30:20.067Z,997.61
2017-05-06T04:31:30.420Z,997.62
2017-05-06T04:32:40.497Z,997.62
2017-05-06T04:33:50.845Z,997.63
2017-05-06T04:35:01.239Z,997.65
2017-05-06T04:36:11.273Z,997.66
2017-05-06T04:37:21.616Z,997.67
2017-05-06T04:38:31.970Z,997.67
2017-05-06T04:39:42.322Z,997.67
2017-05-06T04:40:52.671Z,997.68
2017-05-06T04:42:02.711Z,997.68
2017-05-06T04:43:13.077Z,997.7
2017-05-06T04:44:22.797Z,997.7
2017-05-06T04:45:32.826Z,997.68
2017-05-06T04:46:42.864Z,997.72
2017-05-06T04:47:52.919Z,997.73
2017-05-06T04:49:03.265Z,997.75
2017-05-06T04:50:13.634Z,997.77
2017-05-06T04:51:24.237Z,997.75
2017-05-06T04:52:34.613Z,997.73
2017-05-06T04:53:44.333Z,997.76
2017-05-06T04:54:54.378Z,997.73
2017-05-06T04:56:04.742Z,997.8
2017-05-06T04:57:15.091Z,997.75
2017-05-06T04:58:25.431Z,997.76
2017-05-06T04:59:35.773Z,997.65
2017-05-06T05:00:46.126Z,997.7
2017-05-06T05:01:56.476Z,997.76
2017-05-06T05:03:06.198Z,997.76
2017-05-06T05:04:16.545Z,997.76
2017-05-06T05:05:26.261Z,997.7
2017-05-06T05:06:36.590Z,997.8
2017-05-06T05:07:46.652Z,997.78
2017-05-06T05:08:56.394Z,997.68
2017-05-06T05:10:06.756Z,997.69
2017-05-06T05:11:17.090Z,997.72
2017-05-06T05:12:27.168Z,997.81
2017-05-06T05:13:36.900Z,997.83
2017-05-06T05:14:47.274Z,997.81
2017-05-06T05:15:57.624Z,997.87
2017-05-06T05:17:07.969Z,997.93
2017-05-06T05:18:17.995Z,997.81
2017-05-06T05:19:28.353Z,997.82
2017-05-06T05:20:38.696Z,997.82
2017-05-06T05:21:48.407Z,997.76
2017-05-06T05:22:58.434Z,997.78
2017-05-06T05:24:08.464Z,997.86
2017-05-06T05:25:18.497Z,997.82
2017-05-06T05:26:28.834Z,997.81
2017-05-06T05:27:39.209Z,997.8
2017-05-06T05:28:49.249Z,997.84
2017-05-06T05:29:59.663Z,997.82
2017-05-06T05:31:10.040Z,997.83
2017-05-06T05:32:20.410Z,997.79
2017-05-06T05:33:30.758Z,997.79
2017-05-06T05:34:41.102Z,997.81
2017-05-06T05:35:51.462Z,997.81
2017-05-06T05:37:01.505Z,997.85
2017-05-06T05:38:11.852Z,997.86
2017-05-06T05:39:21.898Z,997.85
2017-05-06T05:40:32.243Z,997.85
2017-05-06T05:41:42.266Z,997.85
2017-05-06T05:42:52.295Z,997.86
2017-05-06T05:44:02.324Z,997.86
2017-05-06T05:45:12.689Z,997.76
2017-05-06T05:46:23.040Z,997.82
2017-05-06T05:47:33.390Z,997.8
2017-05-06T05:48:43.445Z,997.76
2017-05-06T05:49:53.808Z,997.78
2017-05-06T05:51:03.844Z,997.78
2017-05-06T05:52:14.189Z,997.76
2017-05-06T05:53:24.520Z,997.8
2017-05-06T05:54:34.872Z,997.75
2017-05-06T05:55:44.899Z,997.83
2017-05-06T05:56:55.257Z,997.82
2017-05-06T05:58:05.624Z,997.81
2017-05-06T05:59:15.648Z,997.87
2017-05-06T06:00:26.029Z,997.88
2017-05-06T06:01:36.365Z,997.83
2017-05-06T06:02:46.717Z,997.88
2017-05-06T06:03:57.052Z,997.84
2017-05-06T06:05:07.076Z,997.85
2017-05-06T06:06:17.412Z,997.8
2017-05-06T06:07:27.749Z,997.77
2017-05-06T06:08:38.113Z,997.76
2017-05-06T06:09:48.474Z,997.79
2017-05-06T06:10:58.864Z,997.7
2017-05-06T06:12:08.899Z,997.73
2017-05-06T06:13:19.245Z,997.72
2017-05-06T06:14:29.585Z,997.74
2017-05-06T06:15:39.925Z,997.72
2017-05-06T06:16:49.968Z,997.8
2017-05-06T06:18:00.012Z,997.77
2017-05-06T06:19:10.052Z,997.74
2017-05-06T06:20:20.431Z,997.79
2017-05-06T06:21:30.806Z,997.8
2017-05-06T06:22:40.841Z,997.81
2017-05-06T06:23:51.197Z,997.83
2017-05-06T06:25:01.559Z,997.81
2017-05-06T06:26:11.915Z,997.82
2017-05-06T06:27:22.277Z,997.79
2017-05-06T06:28:32.629Z,997.84
2017-05-06T06:29:42.973Z,997.81
2017-05-06T06:30:53.338Z,997.81
2017-05-06T06:32:03.707Z,997.81
2017-05-06T06:33:13.739Z,997.82
2017-05-06T06:34:24.165Z,997.79
2017-05-06T06:35:34.514Z,997.83
2017-05-06T06:36:44.246Z,997.77
2017-05-06T06:37:54.876Z,997.79
2017-05-06T06:39:05.235Z,997.71
2017-05-06T06:40:15.292Z,997.7
2017-05-06T06:41:25.638Z,997.68
2017-05-06T06:42:35.993Z,997.64
2017-05-06T06:43:46.353Z,997.69
2017-05-06T06:44:56.731Z,997.72
2017-05-06T06:46:07.108Z,997.64
2017-05-06T06:47:17.449Z,997.64
2017-05-06T06:48:27.497Z,997.64
2017-05-06T06:49:37.858Z,997.69
2017-05-06T06:50:48.223Z,997.69
2017-05-06T06:51:58.261Z,997.66
2017-05-06T06:53:08.606Z,997.61
2017-05-06T06:54:18.986Z,997.67
2017-05-06T06:55:29.024Z,997.67
2017-05-06T06:56:39.069Z,997.68
2017-05-06T06:57:49.114Z,997.67
2017-05-06T06:58:59.460Z,997.72
2017-05-06T07:00:09.809Z,997.68
2017-05-06T07:01:20.137Z,997.72
2017-05-06T07:02:30.197Z,997.68
2017-05-06T07:03:40.552Z,997.71
2017-05-06T07:04:50.886Z,997.73
2017-05-06T07:06:01.250Z,997.74
2017-05-06T07:07:11.293Z,997.7
2017-05-06T07:08:21.664Z,997.74
2017-05-06T07:09:32.004Z,997.73
2017-05-06T07:10:42.352Z,997.67
2017-05-06T07:11:52.090Z,997.74
2017-05-06T07:13:01.821Z,997.72
2017-05-06T07:14:12.194Z,997.7
2017-05-06T07:15:22.227Z,997.73
2017-05-06T07:16:32.584Z,997.72
2017-05-06T07:17:42.930Z,997.69
2017-05-06T07:18:53.005Z,997.71
2017-05-06T07:20:03.367Z,997.66
2017-05-06T07:21:13.469Z,997.67
2017-05-06T07:22:23.845Z,997.61
2017-05-06T07:23:34.198Z,997.6
2017-05-06T07:24:44.536Z,997.58
2017-05-06T07:25:54.577Z,997.59
2017-05-06T07:27:04.931Z,997.56
2017-05-06T07:28:15.297Z,997.58
2017-05-06T07:29:25.652Z,997.6
2017-05-06T07:30:36.017Z,997.57
2017-05-06T07:31:45.746Z,997.55
2017-05-06T07:32:56.137Z,997.51
2017-05-06T07:34:06.490Z,997.52
2017-05-06T07:35:16.528Z,997.5
2017-05-06T07:36:26.555Z,997.49
2017-05-06T07:37:36.595Z,997.47
2017-05-06T07:38:46.947Z,997.44
2017-05-06T07:39:56.678Z,997.43
2017-05-06T07:41:07.036Z,997.4
2017-05-06T07:42:17.076Z,997.36
2017-05-06T07:43:27.425Z,997.35
2017-05-06T07:44:37.788Z,997.34
2017-05-06T07:45:47.846Z,997.33
2017-05-06T07:46:58.246Z,997.28
2017-05-06T07:48:08.598Z,997.31
2017-05-06T07:49:18.627Z,997.31
2017-05-06T07:50:28.663Z,997.29
2017-05-06T07:51:38.696Z,997.32
2017-05-06T07:52:49.057Z,997.28
2017-05-06T07:53:58.770Z,997.32
2017-05-06T07:55:09.141Z,997.31
2017-05-06T07:56:19.514Z,997.28
2017-05-06T07:57:29.880Z,997.28
2017-05-06T07:58:40.246Z,997.31
2017-05-06T07:59:50.294Z,997.3
2017-05-06T08:01:00.666Z,997.3
2017-05-06T08:02:10.711Z,997.27
2017-05-06T08:03:21.076Z,997.24
2017-05-06T08:04:31.111Z,997.24
2017-05-06T08:05:41.465Z,997.22
2017-05-06T08:06:51.826Z,997.21
2017-05-06T08:08:02.190Z,997.23
2017-05-06T08:09:12.223Z,997.19
2017-05-06T08:10:22.260Z,997.2
2017-05-06T08:11:32.620Z,997.22
2017-05-06T08:12:42.687Z,997.19
2017-05-06T08:13:53.050Z,997.18
2017-05-06T08:15:03.437Z,997.16
2017-05-06T08:16:13.478Z,997.15
2017-05-06T08:17:23.514Z,997.08
2017-05-06T08:18:33.555Z,997.16
2017-05-06T08:19:43.605Z,997.15
2017-05-06T08:20:53.969Z,997.12
2017-05-06T08:22:04.320Z,997.13
2017-05-06T08:23:14.685Z,997.1
2017-05-06T08:24:25.042Z,997.05
2017-05-06T08:25:35.403Z,996.97
2017-05-06T08:26:45.751Z,996.97
2017-05-06T08:27:56.109Z,997.01
2017-05-06T08:29:06.697Z,996.95
2017-05-06T08:30:16.734Z,996.99
2017-05-06T08:31:27.094Z,996.98
2017-05-06T08:32:37.153Z,997.01
2017-05-06T08:33:47.200Z,996.99
2017-05-06T08:34:57.575Z,997.01
2017-05-06T08:36:07.934Z,996.98
2017-05-06T08:37:17.980Z,996.98
2017-05-06T08:38:28.342Z,996.94
2017-05-06T08:39:38.717Z,996.93
2017-05-06T08:40:49.099Z,996.95
2017-05-06T08:41:59.148Z,996.96
2017-05-06T08:43:09.518Z,996.93
2017-05-06T08:44:19.568Z,996.92
2017-05-06T08:45:29.607Z,996.87
2017-05-06T08:46:39.646Z,996.91
2017-05-06T08:47:49.686Z,996.88
2017-05-06T08:49:00.050Z,996.85
2017-05-06T08:50:10.401Z,996.86
2017-05-06T08:51:20.754Z,996.84
2017-05-06T08:52:31.108Z,996.82
2017-05-06T08:53:41.493Z,996.78
2017-05-06T08:54:51.845Z,996.76
2017-05-06T08:56:01.888Z,996.8
2017-05-06T08:57:12.248Z,996.71
2017-05-06T08:58:22.614Z,996.73
2017-05-06T08:59:32.666Z,996.7
2017-05-06T09:00:43.052Z,996.71
2017-05-06T09:01:53.414Z,996.67
2017-05-06T09:03:03.762Z,996.71
2017-05-06T09:04:13.809Z,996.68
2017-05-06T09:05:24.180Z,996.62
2017-05-06T09:06:34.535Z,996.57
2017-05-06T09:07:44.885Z,996.58
2017-05-06T09:08:55.240Z,996.59
2017-05-06T09:10:05.303Z,996.56
2017-05-06T09:11:15.653Z,996.52
2017-05-06T09:12:25.375Z,996.51
2017-05-06T09:13:35.732Z,996.48
2017-05-06T09:14:45.784Z,996.44
2017-05-06T09:15:56.172Z,996.43
2017-05-06T09:17:06.542Z,996.47
2017-05-06T09:18:16.268Z,996.48
2017-05-06T09:19:26.323Z,996.49
2017-05-06T09:20:36.376Z,996.46
2017-05-06T09:21:46.733Z,996.45
2017-05-06T09:22:57.101Z,996.42
2017-05-06T09:24:07.138Z,996.42
2017-05-06T09:25:17.491Z,996.44
2017-05-06T09:26:27.854Z,996.39
2017-05-06T09:27:37.887Z,996.35
2017-05-06T09:28:48.260Z,996.34
2017-05-06T09:29:58.624Z,996.3
2017-05-06T09:31:08.669Z,996.35
2017-05-06T09:32:18.731Z,996.36
2017-05-06T09:33:29.088Z,996.37
2017-05-06T09:34:39.137Z,996.29
2017-05-06T09:35:49.726Z,996.27
2017-05-06T09:37:00.069Z,996.23
2017-05-06T09:38:10.119Z,996.26
2017-05-06T09:39:20.475Z,996.22
2017-05-06T09:40:30.516Z,996.19
2017-05-06T09:41:40.574Z,996.17
2017-05-06T09:42:50.604Z,996.2
2017-05-06T09:44:00.646Z,996.2
2017-05-06T09:45:10.997Z,996.22
2017-05-06T09:46:21.357Z,996.19
2017-05-06T09:47:31.388Z,996.14
2017-05-06T09:48:41.747Z,996.09
2017-05-06T09:49:51.791Z,996.08
2017-05-06T09:51:02.148Z,996.12
2017-05-06T09:52:11.871Z,996.07
2017-05-06T09:53:21.910Z,995.99
2017-05-06T09:54:32.272Z,995.97
2017-05-06T09:55:42.023Z,995.97
2017-05-06T09:56:51.760Z,995.9
2017-05-06T09:58:02.113Z,995.87
2017-05-06T09:59:12.165Z,995.9
2017-05-06T10:00:22.217Z,995.85
2017-05-06T10:01:32.568Z,995.81
2017-05-06T10:02:42.930Z,995.77
2017-05-06T10:03:52.984Z,995.78
2017-05-06T10:05:03.361Z,995.76
2017-05-06T10:06:13.707Z,995.76
2017-05-06T10:07:23.767Z,995.75
2017-05-06T10:08:34.138Z,995.72
2017-05-06T10:09:44.507Z,995.75
2017-05-06T10:10:54.893Z,995.75
2017-05-06T10:12:05.263Z,995.73
2017-05-06T10:13:15.618Z,995.72
2017-05-06T10:14:25.992Z,995.71
2017-05-06T10:15:36.358Z,995.73
2017-05-06T10:16:46.720Z,995.73
2017-05-06T10:17:57.076Z,995.72
2017-05-06T10:19:07.127Z,995.69
2017-05-06T10:20:17.184Z,995.68
2017-05-06T10:21:27.555Z,995.66
2017-05-06T10:22:37.963Z,995.57
2017-05-06T10:23:48.000Z,995.52
2017-05-06T10:24:58.048Z,995.51
2017-05-06T10:26:08.103Z,995.5
2017-05-06T10:27:18.145Z,995.42
2017-05-06T10:28:28.522Z,995.42
2017-05-06T10:29:38.869Z,995.38
2017-05-06T10:30:49.229Z,995.43
2017-05-06T10:31:59.271Z,995.37
2017-05-06T10:33:09.319Z,995.44
2017-05-06T10:34:19.683Z,995.47
2017-05-06T10:35:30.033Z,995.45
2017-05-06T10:36:40.394Z,995.42
2017-05-06T10:37:50.768Z,995.4
2017-05-06T10:39:01.116Z,995.44
2017-05-06T10:40:11.156Z,995.45
2017-05-06T10:41:21.534Z,995.45
2017-05-06T10:42:31.937Z,995.4
2017-05-06T10:43:41.995Z,995.42
2017-05-06T10:44:52.344Z,995.39
2017-05-06T10:46:02.705Z,995.33
2017-05-06T10:47:13.112Z,995.34
2017-05-06T10:48:23.492Z,995.26
2017-05-06T10:49:33.861Z,995.28
2017-05-06T10:50:43.286Z,995.25
2017-05-06T10:51:53.645Z,995.19
2017-05-06T10:53:03.998Z,995.14
2017-05-06T10:54:14.034Z,995.17
2017-05-06T10:55:24.389Z,995.15
2017-05-06T10:56:34.744Z,995.1
2017-05-06T10:57:45.100Z,995.08
2017-05-06T10:58:55.469Z,995.13
2017-05-06T11:00:05.854Z,995.14
2017-05-06T11:01:15.904Z,995.11
2017-05-06T11:02:25.634Z,995.1
2017-05-06T11:03:35.988Z,995.08
2017-05-06T11:04:46.344Z,995.01
2017-05-06T11:05:56.687Z,994.95
2017-05-06T11:07:06.741Z,994.92
2017-05-06T11:08:17.121Z,994.92
2017-05-06T11:09:27.160Z,994.91
2017-05-06T11:10:37.540Z,994.9
2017-05-06T11:11:47.575Z,994.8
2017-05-06T11:12:57.939Z,994.83
2017-05-06T11:14:08.309Z,994.8
2017-05-06T11:15:18.352Z,994.76
2017-05-06T11:16:28.394Z,994.79
2017-05-06T11:17:38.742Z,994.71
2017-05-06T11:18:48.805Z,994.71
2017-05-06T11:19:59.168Z,994.68
2017-05-06T11:21:09.525Z,994.62
2017-05-06T11:22:19.873Z,994.58
2017-05-06T11:23:30.277Z,994.61
2017-05-06T11:24:40.645Z,994.6
2017-05-06T11:25:50.726Z,994.57
2017-05-06T11:27:01.079Z,994.58
2017-05-06T11:28:11.122Z,994.62
2017-05-06T11:29:21.490Z,994.59
2017-05-06T11:30:31.854Z,994.59
2017-05-06T11:31:42.241Z,994.52
2017-05-06T11:32:51.662Z,994.46
2017-05-06T11:34:01.391Z,994.41
2017-05-06T11:35:11.440Z,994.37
2017-05-06T11:36:21.502Z,994.3
2017-05-06T11:37:31.875Z,994.3
2017-05-06T11:38:41.965Z,994.26
2017-05-06T11:39:51.999Z,994.27
2017-05-06T11:41:02.052Z,994.25
2017-05-06T11:42:12.431Z,994.19
2017-05-06T11:43:22.793Z,994.19
2017-05-06T11:44:33.165Z,994.21
2017-05-06T11:45:43.545Z,994.2
2017-05-06T11:46:53.909Z,994.21
2017-05-06T11:48:04.260Z,994.13
2017-05-06T11:49:14.607Z,994.16
2017-05-06T11:50:24.665Z,994.14
2017-05-06T11:51:35.028Z,994.14
2017-05-06T11:52:45.062Z,994.08
2017-05-06T11:53:55.416Z,994.07
2017-05-06T11:55:05.776Z,994.06
2017-05-06T11:56:16.144Z,994.06
2017-05-06T11:57:26.553Z,994.08
2017-05-06T11:58:36.947Z,993.97
2017-05-06T11:59:46.993Z,993.96
2017-05-06T12:00:57.364Z,993.96
2017-05-06T12:02:07.724Z,993.96
2017-05-06T12:03:18.083Z,993.93
2017-05-06T12:04:28.439Z,993.9
2017-05-06T12:05:38.795Z,993.91
2017-05-06T12:06:49.188Z,993.87
2017-05-06T12:07:59.553Z,993.85
2017-05-06T12:09:09.918Z,993.81
2017-05-06T12:10:19.649Z,993.83
2017-05-06T12:11:29.704Z,993.78
2017-05-06T12:12:40.079Z,993.72
2017-05-06T12:13:50.441Z,993.74
2017-05-06T12:15:00.800Z,993.72
2017-05-06T12:16:11.146Z,993.71
2017-05-06T12:17:21.503Z,993.64
2017-05-06T12:18:31.245Z,993.65
2017-05-06T12:19:41.607Z,993.54
2017-05-06T12:20:51.997Z,993.49
2017-05-06T12:22:02.033Z,993.52
2017-05-06T12:23:12.376Z,993.46
2017-05-06T12:24:22.764Z,993.46
2017-05-06T12:25:33.128Z,993.46
2017-05-06T12:26:43.486Z,993.44
2017-05-06T12:27:53.859Z,993.43
2017-05-06T12:29:03.914Z,993.41
2017-05-06T12:30:14.267Z,993.31
2017-05-06T12:31:24.644Z,993.29
2017-05-06T12:32:35.018Z,993.25
2017-05-06T12:33:45.368Z,993.22
2017-05-06T12:34:55.725Z,993.21
2017-05-06T12:36:06.103Z,993.17
2017-05-06T12:37:16.457Z,993.16
2017-05-06T12:38:26.818Z,993.14
2017-05-06T12:39:37.191Z,993.14
2017-05-06T12:40:47.536Z,993.15
2017-05-06T12:41:57.584Z,993.13
2017-05-06T12:43:07.952Z,993.12
2017-05-06T12:44:17.987Z,993.1
2017-05-06T12:45:28.047Z,993.1
2017-05-06T12:46:38.096Z,993.06
2017-05-06T12:47:48.159Z,993.07
2017-05-06T12:48:58.542Z,993.08
2017-05-06T12:50:08.576Z,992.96
2017-05-06T12:51:18.624Z,992.97
2017-05-06T12:52:28.351Z,992.94
2017-05-06T12:53:38.717Z,992.88
2017-05-06T12:54:49.066Z,992.84
2017-05-06T12:55:59.440Z,992.9
2017-05-06T12:57:09.493Z,992.89
2017-05-06T12:58:19.884Z,992.87
2017-05-06T12:59:29.939Z,992.88
2017-05-06T13:00:40.297Z,992.83
2017-05-06T13:01:50.334Z,992.83
2017-05-06T13:03:00.701Z,992.82
2017-05-06T13:04:11.082Z,992.81
2017-05-06T13:05:21.145Z,992.79
2017-05-06T13:06:31.180Z,992.82
2017-05-06T13:07:41.558Z,992.83
2017-05-06T13:08:51.895Z,992.84
2017-05-06T13:10:02.255Z,992.81
2017-05-06T13:11:12.621Z,992.81
2017-05-06T13:12:22.989Z,992.78
2017-05-06T13:13:33.035Z,992.76
2017-05-06T13:14:43.081Z,992.78
2017-05-06T13:15:53.434Z,992.82
2017-05-06T13:17:03.791Z,992.75
2017-05-06T13:18:14.173Z,992.75
2017-05-06T13:19:24.259Z,992.72
2017-05-06T13:20:34.606Z,992.68
2017-05-06T13:21:44.657Z,992.7
2017-05-06T13:22:55.029Z,992.74
2017-05-06T13:24:05.418Z,992.74
2017-05-06T13:25:15.815Z,992.73
2017-05-06T13:26:25.879Z,992.72
2017-05-06T13:27:36.262Z,992.72
2017-05-06T13:28:46.334Z,992.76
2017-05-06T13:29:56.697Z,992.8
2017-05-06T13:31:07.030Z,992.77
2017-05-06T13:32:17.412Z,992.82
2017-05-06T13:33:27.778Z,992.89
2017-05-06T13:34:38.122Z,992.85
2017-05-06T13:35:48.174Z,992.79
2017-05-06T13:36:58.586Z,992.73
2017-05-06T13:38:08.617Z,992.64
2017-05-06T13:39:18.985Z,992.66
2017-05-06T13:40:29.385Z,992.56
2017-05-06T13:41:39.748Z,992.53
2017-05-06T13:42:50.094Z,992.49
2017-05-06T13:44:00.132Z,992.47
2017-05-06T13:45:10.484Z,992.43
2017-05-06T13:46:20.854Z,992.39
2017-05-06T13:47:31.227Z,992.36
2017-05-06T13:48:41.599Z,992.39
2017-05-06T13:49:51.955Z,992.4
2017-05-06T13:51:02.345Z,992.38
2017-05-06T13:52:12.409Z,992.4
2017-05-06T13:53:22.749Z,992.43
2017-05-06T13:54:32.801Z,992.41
2017-05-06T13:55:43.200Z,992.41
2017-05-06T13:56:53.574Z,992.36
2017-05-06T13:58:03.600Z,992.44
2017-05-06T13:59:13.653Z,992.43
2017-05-06T14:00:23.988Z,992.41
2017-05-06T14:01:34.017Z,992.36
2017-05-06T14:02:44.403Z,992.36
2017-05-06T14:03:54.750Z,992.41
2017-05-06T14:05:04.791Z,992.4
2017-05-06T14:06:15.140Z,992.41
2017-05-06T14:07:25.513Z,992.4
2017-05-06T14:08:35.886Z,992.41
2017-05-06T14:09:45.932Z,992.39
2017-05-06T14:10:56.301Z,992.38
2017-05-06T14:12:06.655Z,992.41
2017-05-06T14:13:16.692Z,992.41
2017-05-06T14:14:27.060Z,992.45
2017-05-06T14:15:37.400Z,992.46
2017-05-06T14:16:47.770Z,992.43
2017-05-06T14:17:58.136Z,992.39
2017-05-06T14:19:08.188Z,992.34
2017-05-06T14:20:18.556Z,992.29
2017-05-06T14:21:28.594Z,992.34
2017-05-06T14:22:38.671Z,992.29
2017-05-06T14:23:49.044Z,992.25
2017-05-06T14:24:59.411Z,992.21
2017-05-06T14:26:09.767Z,992.19
2017-05-06T14:27:20.140Z,992.19
2017-05-06T14:28:30.542Z,992.18
2017-05-06T14:29:40.896Z,992.14
2017-05-06T14:30:50.979Z,992.1
2017-05-06T14:32:01.345Z,992.09
2017-05-06T14:33:11.739Z,992.08
2017-05-06T14:34:21.842Z,991.98
2017-05-06T14:35:32.199Z,992.03
2017-05-06T14:36:41.923Z,992.02
2017-05-06T14:37:51.656Z,992.01
2017-05-06T14:39:02.016Z,992
2017-05-06T14:40:12.363Z,991.97
2017-05-06T14:41:22.725Z,991.91
2017-05-06T14:42:33.087Z,991.98
2017-05-06T14:43:43.451Z,991.97
2017-05-06T14:44:53.815Z,991.97
2017-05-06T14:46:03.865Z,991.98
2017-05-06T14:47:14.206Z,991.94
2017-05-06T14:48:24.556Z,991.89
2017-05-06T14:49:34.916Z,991.89
2017-05-06T14:50:44.970Z,991.86
2017-05-06T14:51:55.345Z,991.81
2017-05-06T14:53:05.709Z,991.79
2017-05-06T14:54:15.759Z,991.73
2017-05-06T14:55:26.117Z,991.74
2017-05-06T14:56:35.537Z,991.72
2017-05-06T14:57:45.608Z,991.76
2017-05-06T14:58:55.641Z,991.77
2017-05-06T15:00:05.989Z,991.77
2017-05-06T15:01:16.366Z,991.71
2017-05-06T15:02:26.726Z,991.64
2017-05-06T15:03:37.100Z,991.64
2017-05-06T15:04:46.840Z,991.59
2017-05-06T15:05:56.878Z,991.59
2017-05-06T15:07:06.929Z,991.51
2017-05-06T15:08:17.285Z,991.49
2017-05-06T15:09:27.344Z,991.46